Time;durP1;ratioP1;P1;durP2;ratioP2;P2;SDS_P1;SDS_P2;PMS_P1;PMS_P2;Temp;Humidity;BMP_temperature;BMP_pressure;BME280_temperature;BME280_humidity;BME280_pressure;Samples;Min_cycle;Max_cycle;Signal;HPM_P1;HPM_P2
2022/08/13 00:01:40;;;;;;;3.78;2.58;;;;;;;18.14;46.59;92759.03;2070569;69;20171;-71
2022/08/13 00:04:08;;;;;;;3.22;2.40;;;;;;;18.04;47.40;92762.25;2070793;69;20579;-71
2022/08/13 00:09:07;;;;;;;3.35;2.10;;;;;;;17.90;48.21;92756.06;2067329;69;20638;-71
2022/08/13 00:14:22;;;;;;;7.10;2.90;;;;;;;17.84;47.83;92762.31;2063372;69;20484;-71
2022/08/13 00:16:48;;;;;;;4.38;2.70;;;;;;;17.57;49.46;92765.56;2070257;69;20152;-71
2022/08/13 00:19:15;;;;;;;5.00;2.90;;;;;;;17.62;49.29;92759.34;2070599;69;20235;-71
2022/08/13 00:21:41;;;;;;;4.85;2.60;;;;;;;17.59;49.20;92765.63;2070555;69;20136;-71
2022/08/13 00:24:08;;;;;;;5.30;2.75;;;;;;;17.45;50.14;92763.00;2070724;69;20587;-71
2022/08/13 00:26:37;;;;;;;4.50;2.70;;;;;;;17.48;49.43;92764.53;2070965;69;20495;-70
2022/08/13 00:29:03;;;;;;;4.95;2.70;;;;;;;17.45;49.35;92760.16;2070784;69;20171;-70
2022/08/13 00:31:31;;;;;;;6.60;2.83;;;;;;;17.53;49.44;92755.50;2070838;69;20140;-70
2022/08/13 00:33:58;;;;;;;5.97;2.78;;;;;;;17.44;49.67;92759.44;2070615;69;20331;-70
2022/08/13 00:36:25;;;;;;;3.78;2.67;;;;;;;17.46;49.32;92753.81;2067516;69;20631;-70
2022/08/13 00:38:53;;;;;;;4.15;2.35;;;;;;;17.36;49.60;92753.44;2070871;69;20267;-69
2022/08/13 00:41:37;;;;;;;5.30;2.47;;;;;;;17.32;49.89;92750.47;2070869;69;20602;-69
2022/08/13 00:44:08;;;;;;;3.03;2.40;;;;;;;17.33;50.03;92754.03;2067352;69;20152;-70
2022/08/13 00:46:36;;;;;;;4.40;2.67;;;;;;;17.28;50.03;92747.47;2070602;69;20179;-71
2022/08/13 00:49:03;;;;;;;6.88;2.72;;;;;;;17.13;50.90;92749.03;2070687;69;20227;-70
2022/08/13 00:51:30;;;;;;;5.70;2.83;;;;;;;17.23;49.53;92745.88;2067317;69;20140;-70
2022/08/13 00:53:58;;;;;;;6.90;3.05;;;;;;;17.15;50.78;92745.56;2070985;69;20147;-71
2022/08/13 00:56:25;;;;;;;3.53;2.85;;;;;;;17.08;51.07;92743.88;2070498;69;20148;-70
2022/08/13 00:58:53;;;;;;;8.10;3.10;;;;;;;16.96;51.48;92736.34;2067098;69;20277;-71
2022/08/13 01:01:25;;;;;;;4.63;2.70;;;;;;;17.10;50.79;92735.41;2070533;69;20180;-71
2022/08/13 01:03:51;;;;;;;4.33;2.47;;;;;;;17.03;51.02;92737.28;2070441;69;20168;-71
2022/08/13 01:06:22;;;;;;;5.90;3.00;;;;;;;17.17;50.10;92737.09;2067036;69;20154;-71
2022/08/13 01:08:50;;;;;;;3.25;2.47;;;;;;;17.05;50.43;92743.06;2070480;69;20575;-71
2022/08/13 01:11:17;;;;;;;4.50;2.72;;;;;;;16.93;50.97;92731.97;2070618;69;20568;-71
2022/08/13 01:13:44;;;;;;;3.30;2.30;;;;;;;16.92;51.30;92733.34;2067082;69;20540;-71
2022/08/13 01:16:13;;;;;;;4.25;2.67;;;;;;;16.85;51.15;92737.31;2063739;69;20906;-72
2022/08/13 01:18:50;;;;;;;5.80;3.00;;;;;;;16.83;51.98;92739.38;2067115;69;20187;-70
2022/08/13 01:21:19;;;;;;;8.52;3.25;;;;;;;17.10;49.09;92732.56;2067142;69;20586;-70
2022/08/13 01:23:50;;;;;;;6.18;2.83;;;;;;;16.88;50.67;92741.72;2067165;69;20144;-71
2022/08/13 01:26:22;;;;;;;4.55;2.90;;;;;;;16.88;49.98;92743.84;2067074;69;20599;-70
2022/08/13 01:28:50;;;;;;;5.07;3.03;;;;;;;16.76;51.07;92744.81;2067199;69;20583;-70
2022/08/13 01:31:18;;;;;;;7.82;3.28;;;;;;;16.79;50.41;92750.59;2067131;69;20211;-70
2022/08/13 01:33:51;;;;;;;5.05;2.88;;;;;;;16.69;52.49;92753.75;2066959;69;20484;-70
2022/08/13 01:36:18;;;;;;;5.15;2.88;;;;;;;16.70;50.74;92752.34;2066648;69;20125;-71
2022/08/13 01:38:44;;;;;;;4.90;2.90;;;;;;;16.69;50.55;92753.75;2067308;69;20182;-71
2022/08/13 01:41:10;;;;;;;3.50;2.70;;;;;;;16.68;51.26;92757.97;2067372;69;20157;-72
2022/08/13 01:43:43;;;;;;;3.70;2.70;;;;;;;16.54;52.64;92752.47;2066944;69;20233;-71
2022/08/13 01:46:10;;;;;;;4.90;3.05;;;;;;;16.72;51.07;92758.88;2067262;69;20586;-71
2022/08/13 01:51:33;;;;;;;7.55;3.40;;;;;;;16.37;52.42;92756.75;2067181;69;20137;-71
2022/08/13 01:53:59;;;;;;;4.32;3.13;;;;;;;16.45;52.50;92759.22;2066976;69;20260;-71
2022/08/13 01:56:28;;;;;;;7.47;3.33;;;;;;;16.36;52.05;92760.25;2066372;69;20206;-71
2022/08/13 01:58:59;;;;;;;6.32;3.03;;;;;;;16.53;51.07;92760.22;2066955;69;20141;-71
2022/08/13 02:01:26;;;;;;;5.55;3.22;;;;;;;16.31;53.12;92759.38;2067027;69;20159;-71
2022/08/13 02:03:53;;;;;;;3.75;3.00;;;;;;;16.39;52.33;92756.81;2067006;69;20172;-70
2022/08/13 02:06:30;;;;;;;4.32;2.80;;;;;;;16.55;52.39;92759.59;2066972;69;20160;-71
2022/08/13 02:08:59;;;;;;;6.18;3.05;;;;;;;16.41;52.23;92753.34;2066593;69;20528;-71
2022/08/13 02:11:29;;;;;;;6.18;2.78;;;;;;;16.37;52.08;92756.75;2067418;69;20151;-71
2022/08/13 02:13:56;;;;;;;6.50;2.90;;;;;;;16.37;51.53;92756.03;2066727;69;20149;-72
2022/08/13 02:16:23;;;;;;;6.60;2.83;;;;;;;16.30;52.64;92757.88;2068763;69;20203;-71
2022/08/13 02:18:53;;;;;;;5.28;3.13;;;;;;;16.38;51.52;92751.81;2067599;69;20141;-71
2022/08/13 02:21:22;;;;;;;6.45;3.20;;;;;;;16.00;53.16;92757.38;2070815;69;20175;-72
2022/08/13 02:23:56;;;;;;;4.38;3.35;;;;;;;15.86;54.42;92757.50;2070999;69;20144;-71
2022/08/13 02:26:27;;;;;;;6.07;3.45;;;;;;;15.98;53.94;92757.28;2070710;69;20219;-71
2022/08/13 02:28:54;;;;;;;8.18;3.33;;;;;;;16.05;52.08;92761.84;2067438;69;20587;-71
2022/08/13 02:31:21;;;;;;;4.25;2.90;;;;;;;16.12;53.15;92759.97;2070798;69;20247;-71
2022/08/13 02:33:47;;;;;;;5.93;3.03;;;;;;;16.15;52.34;92762.25;2070719;69;20482;-70
2022/08/13 02:36:13;;;;;;;4.90;2.80;;;;;;;16.15;52.62;92756.56;2067791;69;20246;-70
2022/08/13 02:38:40;;;;;;;7.22;2.70;;;;;;;16.29;51.35;92758.53;2071020;69;20754;-70
2022/08/13 02:43:51;;;;;;;7.82;3.20;;;;;;;15.77;54.57;92761.38;2070640;69;20152;-70
2022/08/13 02:46:21;;;;;;;5.90;3.30;;;;;;;15.54;54.13;92764.63;2067567;69;20139;-71
2022/08/13 02:48:52;;;;;;;;;;;;;;;15.60;55.09;92762.03;2070970;69;20152;-71
2022/08/13 02:51:20;;;;;;;3.25;2.70;;;;;;;15.95;52.01;92769.94;2070308;69;20453;-71
2022/08/13 02:53:49;;;;;;;4.97;3.00;;;;;;;15.93;53.17;92767.72;2070805;69;20136;-72
2022/08/13 02:56:23;;;;;;;3.47;2.70;;;;;;;15.92;53.48;92771.97;2071573;69;20156;-71
2022/08/13 02:58:55;;;;;;;3.95;2.78;;;;;;;15.88;53.47;92766.09;2068071;69;20183;-71
2022/08/13 03:01:26;;;;;;;4.03;3.45;;;;;;;15.67;53.79;92767.38;2071293;69;20230;-72
2022/08/13 03:03:54;;;;;;;5.78;3.17;;;;;;;15.63;54.53;92774.94;2065275;69;20160;-73
2022/08/13 03:06:25;;;;;;;5.30;3.28;;;;;;;15.09;55.01;92773.97;2071263;69;20618;-73
2022/08/13 03:08:51;;;;;;;4.82;3.17;;;;;;;15.36;55.85;92781.56;2071382;69;20144;-73
2022/08/13 03:11:18;;;;;;;5.70;3.08;;;;;;;15.71;53.63;92780.97;2071283;69;20591;-72
2022/08/13 03:13:53;;;;;;;5.72;3.10;;;;;;;15.50;54.72;92787.84;2071357;69;20195;-73
2022/08/13 03:16:23;;;;;;;5.07;3.15;;;;;;;15.63;54.50;92794.81;2071353;69;20225;-72
2022/08/13 03:18:49;;;;;;;5.13;3.25;;;;;;;15.61;53.93;92780.50;2071555;69;20176;-72
2022/08/13 03:21:16;;;;;;;3.95;3.20;;;;;;;15.17;55.62;92786.41;2071385;69;20190;-73
2022/08/13 03:23:43;;;;;;;6.07;3.42;;;;;;;15.21;55.32;92785.84;2068045;69;20195;-73
2022/08/13 03:26:11;;;;;;;5.70;3.15;;;;;;;15.39;54.21;92791.59;2071362;69;20151;-74
2022/08/13 03:28:38;;;;;;;8.85;3.20;;;;;;;15.38;54.61;92787.31;2068026;69;20176;-73
2022/08/13 03:31:05;;;;;;;5.60;3.30;;;;;;;15.44;54.22;92787.56;2071290;69;20598;-72
2022/08/13 03:33:32;;;;;;;5.55;3.53;;;;;;;15.35;55.57;92788.59;2067826;69;20530;-73
2022/08/13 03:35:58;;;;;;;4.60;3.20;;;;;;;15.38;54.84;92779.53;2071350;69;20156;-73
2022/08/13 03:38:24;;;;;;;4.47;3.13;;;;;;;15.30;54.93;92778.44;2071328;69;20644;-73
2022/08/13 03:41:02;;;;;;;5.00;3.00;;;;;;;15.37;53.90;92775.25;2071329;69;20282;-72
2022/08/13 03:43:30;;;;;;;3.83;2.88;;;;;;;15.28;54.90;92769.84;2068176;69;20168;-74
2022/08/13 03:45:57;;;;;;;5.70;3.42;;;;;;;15.08;57.02;92773.25;2068163;69;20187;-73
2022/08/13 03:48:25;;;;;;;4.25;3.22;;;;;;;15.00;55.89;92770.03;2071260;69;20156;-70
2022/08/13 03:50:51;;;;;;;5.25;3.20;;;;;;;15.23;55.18;92766.84;2071312;69;20168;-73
2022/08/13 03:53:20;;;;;;;4.05;3.25;;;;;;;14.89;56.59;92768.09;2071286;69;20305;-73
2022/08/13 03:55:47;;;;;;;4.75;3.00;;;;;;;15.17;55.87;92777.91;2071273;69;20150;-72
2022/08/13 03:58:15;;;;;;;5.22;3.28;;;;;;;15.10;55.39;92783.94;2071330;69;20136;-72
2022/08/13 04:00:47;;;;;;;7.03;3.10;;;;;;;14.96;56.25;92781.19;2067835;69;20152;-72
2022/08/13 04:03:21;;;;;;;5.03;3.10;;;;;;;15.24;54.30;92778.91;2074020;69;20155;-72
2022/08/13 04:05:58;;;;;;;5.78;3.50;;;;;;;15.04;56.05;92781.56;2069328;69;20187;-73
2022/08/13 04:08:34;;;;;;;3.55;3.10;;;;;;;14.66;58.05;92780.50;2072123;69;20144;-71
2022/08/13 04:11:03;;;;;;;4.90;3.50;;;;;;;14.53;58.84;92789.81;2071719;69;20216;-72
2022/08/13 04:13:29;;;;;;;5.93;3.45;;;;;;;14.77;57.60;92790.94;2072699;69;20170;-72
2022/08/13 04:15:55;;;;;;;4.70;3.40;;;;;;;14.94;56.22;92787.50;2072086;69;20155;-72
2022/08/13 04:18:20;;;;;;;4.22;3.25;;;;;;;14.86;57.17;92789.97;2072070;69;20160;-72
2022/08/13 04:20:52;;;;;;;4.15;3.28;;;;;;;14.77;57.09;92788.13;2072614;69;20172;-72
2022/08/13 04:23:19;;;;;;;6.28;3.67;;;;;;;14.78;57.04;92788.84;2073846;69;20156;-71
2022/08/13 04:25:47;;;;;;;3.80;2.97;;;;;;;14.91;56.44;92783.09;2074442;69;20241;-71
2022/08/13 04:28:15;;;;;;;3.70;3.08;;;;;;;14.94;55.80;92792.44;2074865;69;20235;-71
2022/08/13 04:30:42;;;;;;;6.40;3.28;;;;;;;13.97;59.29;92792.03;2074594;69;20195;-71
2022/08/13 04:33:14;;;;;;;5.15;3.75;;;;;;;14.32;57.96;92794.47;2070943;69;20148;-72
2022/08/13 04:35:44;;;;;;;6.13;3.50;;;;;;;14.70;55.42;92800.53;2072490;69;20152;-72
2022/08/13 04:38:12;;;;;;;6.30;3.38;;;;;;;14.37;58.84;92804.63;2069396;69;20140;-72
2022/08/13 04:40:40;;;;;;;9.77;4.10;;;;;;;14.45;58.71;92804.28;2069626;69;20180;-72
2022/08/13 04:43:07;;;;;;;6.78;3.70;;;;;;;14.65;56.61;92793.94;2070709;69;20147;-70
2022/08/13 04:45:34;;;;;;;6.75;3.85;;;;;;;14.65;57.24;92796.78;2071543;69;20150;-70
2022/08/13 04:48:04;;;;;;;5.20;3.50;;;;;;;14.53;57.78;92790.53;2067776;69;20176;-71
2022/08/13 04:50:34;;;;;;;5.88;3.67;;;;;;;14.60;57.09;92788.72;2068913;69;20156;-71
2022/08/13 04:53:06;;;;;;;7.38;4.22;;;;;;;14.64;58.21;92786.81;2067879;69;20156;-71
2022/08/13 04:55:32;;;;;;;7.50;3.90;;;;;;;14.62;57.50;92783.91;2068756;69;20482;-72
2022/08/13 04:57:58;;;;;;;7.30;4.18;;;;;;;14.67;57.29;92781.97;2071245;69;20258;-71
2022/08/13 05:00:25;;;;;;;5.45;3.20;;;;;;;14.72;56.92;92777.97;2071158;69;20523;-71
2022/08/13 05:02:52;;;;;;;6.28;3.80;;;;;;;14.68;57.09;92791.94;2067838;69;20517;-70
2022/08/13 05:05:22;;;;;;;5.15;3.45;;;;;;;14.75;56.96;92785.19;2064563;69;20184;-71
2022/08/13 05:07:51;;;;;;;4.72;4.00;;;;;;;14.72;57.14;92780.81;2067843;69;20555;-71
2022/08/13 05:10:20;;;;;;;7.80;4.43;;;;;;;14.63;58.41;92785.34;2067842;69;20152;-70
2022/08/13 05:12:47;;;;;;;50.72;16.33;;;;;;;14.80;56.50;92783.25;2067910;69;20144;-70
2022/08/13 05:15:13;;;;;;;14.65;6.03;;;;;;;14.64;58.06;92786.81;2067917;69;20229;-70
2022/08/13 05:17:40;;;;;;;20.80;7.97;;;;;;;14.79;56.57;92784.63;2067718;69;20568;-70
2022/08/13 05:20:13;;;;;;;7.07;4.03;;;;;;;14.66;58.37;92792.59;2067868;69;20211;-71
2022/08/13 05:22:39;;;;;;;5.90;3.40;;;;;;;14.78;57.63;92789.56;2067832;69;20160;-71
2022/08/13 05:25:05;;;;;;;7.25;3.63;;;;;;;14.74;57.80;92795.06;2067863;69;20148;-70
2022/08/13 05:27:31;;;;;;;4.35;3.38;;;;;;;14.66;58.47;92798.25;2067836;69;20273;-71
2022/08/13 05:29:58;;;;;;;5.50;3.65;;;;;;;14.95;55.58;92797.47;2067829;69;20166;-71
2022/08/13 05:32:25;;;;;;;5.38;3.13;;;;;;;15.10;54.64;92798.13;2067687;69;20136;-70
2022/08/13 05:34:51;;;;;;;5.40;3.90;;;;;;;14.66;58.20;92806.00;2067845;69;20148;-70
2022/08/13 05:37:17;;;;;;;8.80;3.90;;;;;;;14.62;57.74;92805.81;2064390;69;20144;-70
2022/08/13 05:39:44;;;;;;;5.70;3.97;;;;;;;14.56;58.57;92805.53;2067747;69;20152;-70
2022/08/13 05:42:10;;;;;;;7.93;3.88;;;;;;;14.67;58.86;92796.16;2067885;69;20140;-70
2022/08/13 05:44:36;;;;;;;4.50;3.60;;;;;;;14.70;58.35;92800.53;2068108;69;20575;-71
2022/08/13 05:47:02;;;;;;;5.05;3.65;;;;;;;14.82;57.93;92803.22;2068091;69;20164;-70
2022/08/13 05:49:28;;;;;;;5.00;3.85;;;;;;;14.76;58.28;92802.94;2068414;69;20174;-70
2022/08/13 05:51:53;;;;;;;5.43;4.00;;;;;;;14.74;58.57;92797.88;2068137;69;20137;-71
2022/08/13 05:54:19;;;;;;;7.78;4.28;;;;;;;14.82;57.94;92803.22;2068380;69;20151;-72
2022/08/13 05:56:45;;;;;;;5.25;3.35;;;;;;;14.89;58.25;92802.88;2069727;69;20148;-71
2022/08/13 06:04:40;;;;;;;305.27;98.55;;;;;;;14.95;56.49;92808.81;2071828;69;20302;-72
2022/08/13 06:07:13;;;;;;;148.52;43.20;;;;;;;14.96;56.83;92807.44;2071646;69;20227;-72
2022/08/13 06:09:39;;;;;;;159.73;46.30;;;;;;;15.09;55.83;92808.72;2071321;69;20184;-71
2022/08/13 06:12:05;;;;;;;23.45;9.00;;;;;;;14.98;58.06;92801.88;2068575;69;20209;-71
2022/08/13 06:14:35;;;;;;;11.50;5.55;;;;;;;15.00;57.13;92801.94;2065070;69;20156;-71
2022/08/13 06:17:02;;;;;;;12.75;5.30;;;;;;;14.69;60.22;92799.06;2068189;69;20233;-71
2022/08/13 06:19:31;;;;;;;7.55;4.13;;;;;;;14.78;60.00;92797.34;2068345;69;20633;-72
2022/08/13 06:22:02;;;;;;;6.28;4.40;;;;;;;15.06;56.21;92800.75;2067643;69;20217;-72
2022/08/13 06:24:37;;;;;;;8.95;4.47;;;;;;;15.01;57.17;92797.00;2067821;69;20152;-72
2022/08/13 06:27:11;;;;;;;14.88;5.97;;;;;;;14.87;58.83;92799.19;2072147;69;20183;-72
2022/08/13 06:29:43;;;;;;;7.82;5.30;;;;;;;14.85;59.55;92793.44;2069771;69;20592;-72
2022/08/13 06:32:11;;;;;;;15.20;6.18;;;;;;;15.02;57.34;92792.06;2072836;69;20225;-72
2022/08/13 06:34:37;;;;;;;165.52;44.20;;;;;;;15.14;57.77;92796.19;2073214;69;20140;-72
2022/08/13 06:37:04;;;;;;;60.15;15.60;;;;;;;15.33;57.05;92791.34;2072685;69;20244;-72
2022/08/13 06:39:31;;;;;;;9.82;4.10;;;;;;;15.49;55.39;92792.81;2072364;69;20614;-72
2022/08/13 06:42:04;;;;;;;4.63;3.53;;;;;;;15.56;57.62;92782.44;2071890;69;20650;-72
2022/08/13 06:44:34;;;;;;;5.82;3.60;;;;;;;15.66;56.92;92780.06;2074864;69;20140;-72
2022/08/13 06:47:03;;;;;;;6.40;3.42;;;;;;;15.77;55.85;92780.53;2073998;69;20145;-72
2022/08/13 06:49:31;;;;;;;5.10;3.28;;;;;;;15.81;55.79;92778.59;2072699;69;20155;-72
2022/08/13 06:51:58;;;;;;;13.13;5.22;;;;;;;16.09;56.27;92775.50;2071483;69;20155;-72
2022/08/13 06:54:25;;;;;;;189.30;50.08;;;;;;;16.26;54.71;92774.75;2068194;69;20262;-72
2022/08/13 06:56:56;;;;;;;158.10;42.90;;;;;;;16.37;56.15;92773.06;2068124;69;20593;-72
2022/08/13 06:59:23;;;;;;;9.70;4.15;;;;;;;16.35;55.79;92779.38;2068255;69;20610;-72
2022/08/13 07:01:57;;;;;;;6.80;3.97;;;;;;;16.44;56.49;92774.78;2068007;69;20137;-73
2022/08/13 07:04:23;;;;;;;4.90;3.25;;;;;;;16.52;57.82;92763.72;2072943;69;20179;-74
2022/08/13 07:06:50;;;;;;;9.32;3.78;;;;;;;16.73;57.94;92766.03;2073014;69;20158;-72
2022/08/13 07:09:19;;;;;;;5.30;3.65;;;;;;;16.88;57.86;92764.47;2073677;69;20247;-73
2022/08/13 07:11:46;;;;;;;5.05;3.30;;;;;;;17.16;57.84;92756.28;2073678;69;20230;-73
2022/08/13 07:14:13;;;;;;;6.18;3.47;;;;;;;17.50;57.52;92761.75;2072910;69;20144;-73
2022/08/13 07:16:42;;;;;;;5.07;3.38;;;;;;;17.63;55.53;92760.09;2074194;69;20167;-73
2022/08/13 07:19:10;;;;;;;4.88;3.25;;;;;;;18.16;55.50;92747.72;2074165;69;20512;-73
2022/08/13 07:21:36;;;;;;;5.28;3.22;;;;;;;18.32;53.13;92756.06;2073806;69;20152;-73
2022/08/13 07:24:04;;;;;;;5.80;3.70;;;;;;;18.42;52.09;92756.41;2073897;69;20223;-73
2022/08/13 07:26:33;;;;;;;7.13;3.63;;;;;;;19.10;52.10;92747.81;2070938;69;20284;-74
2022/08/13 07:29:01;;;;;;;6.60;3.90;;;;;;;19.46;51.79;92751.03;2073951;69;20224;-74
2022/08/13 07:31:29;;;;;;;5.38;3.78;;;;;;;19.85;49.82;92752.16;2073684;69;20163;-74
2022/08/13 07:33:57;;;;;;;5.30;3.13;;;;;;;20.15;48.91;92755.06;2074037;69;20480;-74
2022/08/13 07:36:33;;;;;;;5.30;3.50;;;;;;;20.46;48.49;92754.44;2074148;69;20179;-75
2022/08/13 07:39:02;;;;;;;10.05;4.13;;;;;;;20.84;48.63;92751.09;2074317;69;20158;-76
2022/08/13 07:41:28;;;;;;;7.93;3.63;;;;;;;21.04;48.58;92748.72;2074617;69;20882;-76
2022/08/13 07:43:54;;;;;;;4.18;3.25;;;;;;;21.30;47.26;92742.84;2074647;69;20159;-73
2022/08/13 07:46:19;;;;;;;3.97;3.20;;;;;;;20.84;45.33;92736.78;2071283;69;20132;-75
2022/08/13 07:48:49;;;;;;;4.32;3.35;;;;;;;21.40;44.59;92739.50;2074519;69;20221;-76
2022/08/13 07:51:19;;;;;;;3.97;2.92;;;;;;;21.76;44.78;92733.06;2074906;69;20251;-73
2022/08/13 07:53:55;;;;;;;5.65;3.53;;;;;;;21.73;43.68;92740.16;2071470;69;20136;-76
2022/08/13 07:56:29;;;;;;;3.95;2.90;;;;;;;21.18;43.35;92741.84;2074767;69;20227;-72
2022/08/13 07:59:08;;;;;;;7.07;3.53;;;;;;;21.53;43.34;92726.91;2074595;69;20444;-73
2022/08/13 08:01:52;;;;;;;3.40;3.03;;;;;;;21.50;42.94;92731.13;2074701;69;20193;-74
2022/08/13 08:04:20;;;;;;;3.72;2.88;;;;;;;21.54;42.73;92722.63;2074525;69;20526;-73
2022/08/13 08:06:48;;;;;;;4.22;2.90;;;;;;;21.13;42.32;92723.88;2071285;69;20128;-73
2022/08/13 08:09:19;;;;;;;5.05;3.05;;;;;;;21.25;42.99;92724.09;2074447;69;20156;-73
2022/08/13 08:14:30;;;;;;;5.93;2.85;;;;;;;21.70;43.37;92724.34;2074649;69;20143;-74
2022/08/13 08:17:00;;;;;;;3.67;2.95;;;;;;;21.99;41.66;92720.63;2074457;69;20247;-74
2022/08/13 08:19:27;;;;;;;7.47;2.80;;;;;;;22.51;42.69;92720.13;2074571;69;20237;-73
2022/08/13 08:21:58;;;;;;;8.60;3.08;;;;;;;23.43;40.85;92715.78;2074634;69;20208;-76
2022/08/13 08:24:26;;;;;;;3.70;2.47;;;;;;;23.44;40.57;92714.34;2074723;69;20136;-75
2022/08/13 08:26:53;;;;;;;3.22;2.70;;;;;;;23.73;38.66;92712.59;2074611;69;20216;-74
2022/08/13 08:29:21;;;;;;;3.97;2.42;;;;;;;23.27;38.42;92713.38;2071213;69;20561;-74
2022/08/13 08:31:50;;;;;;;3.15;2.75;;;;;;;23.74;40.85;92716.91;2074553;69;20160;-74
2022/08/13 08:34:18;;;;;;;3.67;3.00;;;;;;;24.01;40.22;92720.81;2074501;69;20614;-74
2022/08/13 08:36:44;;;;;;;3.30;2.47;;;;;;;24.39;39.57;92714.03;2074554;69;20152;-75
2022/08/13 08:44:43;;;;;;;4.15;2.53;;;;;;;24.22;38.80;92718.88;2074767;69;20132;-74
2022/08/13 08:47:10;;;;;;;5.90;2.70;;;;;;;24.08;39.66;92710.09;2074534;69;20273;-76
2022/08/13 08:49:38;;;;;;;4.32;2.60;;;;;;;25.22;38.03;92713.28;2074428;69;20243;-74
2022/08/13 08:52:04;;;;;;;3.42;2.50;;;;;;;25.56;36.65;92706.97;2071111;69;20240;-74
2022/08/13 08:54:30;;;;;;;6.35;2.50;;;;;;;25.02;35.61;92697.28;2074504;69;20147;-74
2022/08/13 08:56:57;;;;;;;4.38;2.42;;;;;;;24.79;36.01;92687.03;2074682;69;20152;-75
2022/08/13 08:59:26;;;;;;;3.40;2.25;;;;;;;25.99;33.97;92693.47;2074521;69;20215;-75
2022/08/13 09:01:55;;;;;;;4.55;2.38;;;;;;;25.66;35.16;92695.50;2074383;69;20144;-74
2022/08/13 09:04:28;;;;;;;3.08;2.70;;;;;;;25.03;35.02;92692.25;2074498;69;20580;-74
2022/08/13 09:06:58;;;;;;;5.28;2.25;;;;;;;25.41;36.00;92688.16;2074592;69;20244;-75
2022/08/13 09:09:25;;;;;;;3.83;2.70;;;;;;;26.22;36.10;92690.66;2074480;69;20220;-74
2022/08/13 09:11:55;;;;;;;2.60;2.35;;;;;;;26.57;35.74;92674.88;2074444;69;20144;-76
2022/08/13 09:14:30;;;;;;;4.32;2.63;;;;;;;26.18;34.91;92673.34;2074528;69;20629;-76
2022/08/13 09:16:58;;;;;;;2.92;2.63;;;;;;;25.83;35.05;92670.34;2070973;69;20179;-76
2022/08/13 09:19:25;;;;;;;5.32;2.50;;;;;;;25.72;35.62;92665.97;2070958;69;20237;-73
2022/08/13 09:21:51;;;;;;;3.08;2.28;;;;;;;27.00;33.56;92662.56;2074455;69;20139;-72
2022/08/13 09:24:21;;;;;;;4.15;2.42;;;;;;;28.08;32.38;92660.06;2074343;69;20219;-72
2022/08/13 09:26:51;;;;;;;2.58;2.38;;;;;;;26.96;33.68;92654.63;2074436;69;20154;-72
2022/08/13 09:29:20;;;;;;;6.45;2.13;;;;;;;27.28;32.63;92656.03;2070976;69;20136;-72
2022/08/13 09:31:48;;;;;;;4.00;2.50;;;;;;;27.73;31.69;92653.03;2070618;69;20156;-73
2022/08/13 09:34:14;;;;;;;3.97;2.50;;;;;;;26.54;32.97;92653.22;2074194;69;20492;-73
2022/08/13 09:36:40;;;;;;;2.90;2.47;;;;;;;27.43;33.39;92651.66;2070799;69;20239;-74
2022/08/13 09:39:06;;;;;;;2.67;2.30;;;;;;;28.66;32.71;92643.09;2074238;69;20155;-72
2022/08/13 09:41:40;;;;;;;3.67;2.60;;;;;;;28.18;32.10;92649.91;2074148;69;20693;-74
2022/08/13 09:44:05;;;;;;;2.50;2.20;;;;;;;27.81;30.80;92644.31;2070937;69;20154;-74
2022/08/13 09:46:34;;;;;;;3.38;2.53;;;;;;;27.81;30.83;92644.31;2074238;69;20581;-72
2022/08/13 09:49:00;;;;;;;2.30;2.10;;;;;;;28.15;29.56;92634.75;2074374;69;20171;-74
2022/08/13 09:51:30;;;;;;;5.53;1.73;;;;;;;28.12;28.81;92642.69;2074270;69;20151;-73
2022/08/13 09:53:56;;;;;;;4.05;2.00;;;;;;;28.20;29.90;92632.53;2074282;69;20194;-74
2022/08/13 09:56:22;;;;;;;3.33;1.77;;;;;;;27.94;29.41;92634.13;2074354;69;20679;-75
2022/08/13 09:58:50;;;;;;;5.65;1.80;;;;;;;28.42;27.99;92631.69;2074312;69;20175;-75
2022/08/13 10:01:18;;;;;;;4.78;2.08;;;;;;;29.48;29.06;92637.25;2074333;69;20285;-75
2022/08/13 10:03:50;;;;;;;2.08;1.98;;;;;;;28.26;29.10;92630.31;2074251;69;20150;-76
2022/08/13 10:06:18;;;;;;;2.58;1.70;;;;;;;28.11;28.86;92626.06;2074464;69;20148;-76
2022/08/13 10:08:47;;;;;;;3.83;1.60;;;;;;;29.61;27.32;92626.28;2071003;69;20176;-76
2022/08/13 10:11:15;;;;;;;3.28;1.52;;;;;;;30.37;27.23;92635.44;2074304;69;20627;-76
2022/08/13 10:13:42;;;;;;;1.92;1.65;;;;;;;30.11;28.28;92630.72;2074305;69;20262;-74
2022/08/13 10:16:08;;;;;;;1.80;1.45;;;;;;;30.86;27.65;92631.09;2074169;69;20162;-76
2022/08/13 10:18:33;;;;;;;5.80;2.33;;;;;;;31.21;27.42;92630.50;2074180;69;20151;-74
2022/08/13 10:21:02;;;;;;;2.60;1.70;;;;;;;31.39;27.12;92627.28;2074513;69;20213;-74
2022/08/13 10:23:28;;;;;;;4.40;1.80;;;;;;;30.92;26.26;92619.34;2071467;69;20147;-74
2022/08/13 10:25:53;;;;;;;3.15;1.63;;;;;;;30.85;26.04;92615.13;2074652;69;20155;-74
2022/08/13 10:28:26;;;;;;;2.22;1.60;;;;;;;31.90;26.32;92608.13;2074687;69;20503;-74
2022/08/13 10:30:52;;;;;;;4.35;1.60;;;;;;;32.16;24.76;92603.91;2074715;69;20140;-74
2022/08/13 10:33:20;;;;;;;5.38;1.60;;;;;;;32.48;25.71;92611.94;2075002;69;20221;-74
2022/08/13 10:35:57;;;;;;;1.80;1.60;;;;;;;32.41;24.13;92604.84;2075124;69;20209;-74
2022/08/13 10:38:27;;;;;;;3.53;1.70;;;;;;;32.72;24.83;92609.97;2075142;69;20245;-74
2022/08/13 10:40:54;;;;;;;4.28;1.50;;;;;;;33.69;24.00;92603.13;2068900;69;20606;-74
2022/08/13 10:43:21;;;;;;;2.67;1.40;;;;;;;33.62;23.08;92596.72;2075068;69;20156;-74
2022/08/13 10:45:48;;;;;;;2.17;1.60;;;;;;;34.53;22.86;92599.19;2075034;69;20146;-74
2022/08/13 10:48:16;;;;;;;2.38;1.27;;;;;;;34.87;22.34;92605.47;2074981;69;20240;-73
2022/08/13 10:50:42;;;;;;;3.50;1.50;;;;;;;34.67;21.34;92591.47;2071799;69;20135;-75
2022/08/13 10:53:08;;;;;;;2.83;1.00;;;;;;;35.59;20.91;92595.72;2074647;69;20261;-77
2022/08/13 10:55:36;;;;;;;3.28;1.30;;;;;;;35.94;20.03;92588.63;2071472;69;20254;-74
2022/08/13 10:58:19;;;;;;;3.00;1.20;;;;;;;35.92;19.77;92585.75;2071055;69;20639;-74
2022/08/13 11:00:45;;;;;;;2.08;1.30;;;;;;;35.08;20.14;92585.03;2071710;69;20224;-73
2022/08/13 11:03:13;;;;;;;2.42;1.10;;;;;;;36.38;17.90;92588.44;2071574;69;20205;-75
2022/08/13 11:05:38;;;;;;;4.05;1.02;;;;;;;37.88;17.50;92580.84;2065792;69;20613;-73
2022/08/13 11:08:04;;;;;;;2.13;1.20;;;;;;;38.45;16.90;92583.44;2068172;69;20172;-73
2022/08/13 11:10:30;;;;;;;1.05;0.90;;;;;;;40.70;15.92;92581.63;2071742;69;20140;-74
2022/08/13 11:12:56;;;;;;;3.42;1.05;;;;;;;40.45;15.71;92585.88;2071755;69;20206;-73
2022/08/13 11:15:22;;;;;;;1.50;1.00;;;;;;;41.75;15.03;92577.09;2071902;69;20235;-74
2022/08/13 11:17:50;;;;;;;0.90;0.90;;;;;;;40.17;15.90;92569.75;2071813;69;20578;-74
2022/08/13 11:20:22;;;;;;;3.15;0.95;;;;;;;43.39;14.51;92577.13;2071807;69;20143;-73
2022/08/13 11:22:54;;;;;;;2.47;1.20;;;;;;;44.66;14.33;92571.47;2068551;69;20209;-73
2022/08/13 11:25:23;;;;;;;2.30;1.00;;;;;;;44.96;12.16;92577.47;2071881;69;20163;-75
2022/08/13 11:27:49;;;;;;;1.73;0.60;;;;;;;44.67;11.70;92573.59;2071826;69;20151;-74
2022/08/13 11:30:16;;;;;;;2.00;0.70;;;;;;;44.86;11.00;92573.00;2071761;69;20144;-73
2022/08/13 11:32:42;;;;;;;1.30;0.70;;;;;;;41.89;11.57;92571.03;2071554;69;20526;-74
2022/08/13 11:35:09;;;;;;;1.45;0.70;;;;;;;44.04;11.96;92555.00;2071770;69;20129;-74
2022/08/13 11:37:36;;;;;;;3.42;0.98;;;;;;;43.70;10.63;92566.94;2068174;69;20204;-76
2022/08/13 11:40:03;;;;;;;2.88;0.90;;;;;;;47.23;10.72;92567.44;2071526;69;20529;-74
2022/08/13 11:42:32;;;;;;;2.15;0.70;;;;;;;47.27;10.59;92578.34;2071335;69;20128;-74
2022/08/13 11:44:58;;;;;;;1.20;0.77;;;;;;;47.64;10.14;92564.09;2071596;69;20143;-75
2022/08/13 11:47:24;;;;;;;1.08;0.93;;;;;;;45.95;10.97;92566.38;2071651;69;20152;-74
2022/08/13 11:49:49;;;;;;;3.20;1.02;;;;;;;49.26;9.63;92571.78;2068179;69;20176;-74
2022/08/13 11:52:15;;;;;;;9.27;1.30;;;;;;;47.18;10.73;92565.69;2071652;69;20210;-75
2022/08/13 11:54:41;;;;;;;2.85;1.00;;;;;;;45.00;10.71;92551.16;2071574;69;20179;-74
2022/08/13 11:57:07;;;;;;;3.13;0.80;;;;;;;48.02;10.32;92559.47;2071575;69;20141;-74
2022/08/13 11:59:33;;;;;;;1.15;0.70;;;;;;;48.71;10.06;92552.75;2071452;69;20179;-75
2022/08/13 12:01:58;;;;;;;1.35;0.70;;;;;;;49.61;8.86;92560.41;2071433;69;20196;-77